Time;durP1;ratioP1;P1;durP2;ratioP2;P2;SDS_P1;SDS_P2;PMS_P1;PMS_P2;Temp;Humidity;BMP_temperature;BMP_pressure;BME280_temperature;BME280_humidity;BME280_pressure;Samples;Min_cycle;Max_cycle;Signal;HPM_P1;HPM_P2
2022/05/05 00:01:29;;;;;;;17.67;8.02;;;;;;;10.57;73.96;101879.47;4820181;29;20042;-71
2022/05/05 00:03:55;;;;;;;21.02;9.13;;;;;;;10.57;75.07;101880.31;4821568;29;20091;-72
2022/05/05 00:06:21;;;;;;;18.30;8.30;;;;;;;10.50;75.48;101877.47;4820762;29;20035;-72
2022/05/05 00:08:46;;;;;;;17.13;8.98;;;;;;;10.52;76.13;101882.66;4821602;29;20591;-73
2022/05/05 00:16:40;;;;;;;20.15;9.10;;;;;;;10.55;75.13;101884.16;4821508;29;20098;-71
2022/05/05 00:19:05;;;;;;;20.58;8.07;;;;;;;10.57;75.06;101882.16;4821593;29;20042;-71
2022/05/05 00:21:31;;;;;;;20.23;8.65;;;;;;;10.59;74.98;101883.63;4821661;29;20398;-71
2022/05/05 00:23:56;;;;;;;18.30;8.50;;;;;;;10.62;74.62;101880.63;4821042;29;20049;-72
2022/05/05 00:26:21;;;;;;;15.77;7.93;;;;;;;10.59;75.31;101877.47;4821212;29;20042;-72
2022/05/05 00:28:47;;;;;;;21.52;7.30;;;;;;;10.61;75.13;101881.63;4804906;29;20042;-71
2022/05/05 00:31:12;;;;;;;16.10;8.18;;;;;;;10.66;75.55;101881.09;4821425;29;20474;-71
2022/05/05 00:33:38;;;;;;;17.75;7.53;;;;;;;10.65;75.08;101884.78;4821389;29;20022;-72
2022/05/05 00:36:03;;;;;;;14.98;7.40;;;;;;;10.62;76.05;101882.47;4821378;29;20034;-72
2022/05/05 00:38:29;;;;;;;20.67;8.65;;;;;;;10.63;75.57;101887.59;4820049;29;20034;-72
2022/05/05 00:40:54;;;;;;;19.35;8.43;;;;;;;10.64;75.52;101878.63;4821029;29;20518;-71
2022/05/05 00:43:19;;;;;;;17.33;7.90;;;;;;;10.66;75.21;101887.28;4820899;29;20486;-71
2022/05/05 00:45:45;;;;;;;15.15;8.32;;;;;;;10.67;75.06;101883.63;4804721;29;20058;-71
2022/05/05 00:48:12;;;;;;;15.65;8.70;;;;;;;10.67;75.37;101883.63;4804574;29;20042;-72
2022/05/05 00:50:38;;;;;;;16.38;6.93;;;;;;;10.69;75.91;101880.78;4820928;29;20371;-72
2022/05/05 00:53:04;;;;;;;19.65;8.68;;;;;;;10.68;75.29;101879.09;4821177;29;20046;-72
2022/05/05 00:55:37;;;;;;;14.70;6.30;;;;;;;10.71;75.82;101876.09;4820871;29;20115;-72
2022/05/05 00:58:03;;;;;;;16.00;6.50;;;;;;;10.67;75.63;101867.59;4820961;29;20071;-71
2022/05/05 01:00:32;;;;;;;17.65;7.85;;;;;;;10.66;75.71;101871.28;4804436;29;20042;-72
2022/05/05 01:02:58;;;;;;;15.45;6.88;;;;;;;10.68;75.86;101869.25;4820909;29;20042;-72
2022/05/05 01:05:24;;;;;;;18.88;7.30;;;;;;;10.70;75.38;101874.44;4820933;29;20131;-71
2022/05/05 01:07:50;;;;;;;20.10;8.95;;;;;;;10.66;75.17;101873.09;4820526;29;20494;-72
2022/05/05 01:10:16;;;;;;;18.98;9.40;;;;;;;10.60;75.38;101873.78;4820958;29;20045;-71
2022/05/05 01:12:41;;;;;;;18.77;8.25;;;;;;;10.56;75.36;101869.78;4820825;29;20970;-72
2022/05/05 01:15:08;;;;;;;21.73;8.43;;;;;;;10.49;75.81;101853.66;4820696;29;20039;-72
2022/05/05 01:17:33;;;;;;;18.73;8.55;;;;;;;10.46;75.92;101867.34;4804555;29;20593;-72
2022/05/05 01:20:10;;;;;;;18.52;8.32;;;;;;;10.38;76.01;101865.53;4820694;29;20041;-72
2022/05/05 01:22:35;;;;;;;14.98;6.47;;;;;;;10.34;76.63;101868.69;4820789;29;20063;-71
2022/05/05 01:30:28;;;;;;;19.52;10.38;;;;;;;10.15;77.17;101869.88;4820969;29;20082;-72
2022/05/05 01:32:54;;;;;;;15.55;7.32;;;;;;;10.10;78.29;101875.69;4820739;29;20030;-72
2022/05/05 01:35:19;;;;;;;18.00;8.00;;;;;;;9.95;77.52;101856.88;4820612;29;20046;-71
2022/05/05 01:37:45;;;;;;;17.50;7.97;;;;;;;9.90;78.21;101853.88;4820314;29;20022;-72
2022/05/05 01:40:11;;;;;;;16.20;7.38;;;;;;;9.89;78.08;101868.22;4820485;29;20037;-72
2022/05/05 01:42:38;;;;;;;15.48;7.18;;;;;;;9.87;77.64;101873.69;4820658;29;20038;-72
2022/05/05 01:45:04;;;;;;;18.70;8.07;;;;;;;9.82;78.16;101870.72;4820670;29;20115;-72
2022/05/05 01:47:30;;;;;;;24.65;9.45;;;;;;;9.77;79.08;101869.53;4820115;29;20093;-72
2022/05/05 01:49:59;;;;;;;17.92;8.90;;;;;;;9.70;79.47;101868.56;4820490;29;20065;-72
2022/05/05 01:52:25;;;;;;;19.63;8.27;;;;;;;9.66;79.32;101878.69;4820436;29;20038;-72
2022/05/05 01:54:50;;;;;;;21.05;8.70;;;;;;;9.62;79.69;101875.53;4820113;29;20142;-71
2022/05/05 01:57:16;;;;;;;17.90;8.18;;;;;;;9.58;79.72;101881.34;4820279;29;20042;-72
2022/05/05 01:59:41;;;;;;;18.77;7.68;;;;;;;9.50;79.96;101876.00;4820344;29;20514;-72
2022/05/05 02:02:06;;;;;;;17.40;7.97;;;;;;;9.41;80.26;101872.50;4820342;29;20081;-71
2022/05/05 02:04:32;;;;;;;21.20;8.70;;;;;;;9.32;80.59;101876.97;4819950;29;20023;-72
2022/05/05 02:06:57;;;;;;;23.48;9.77;;;;;;;9.28;80.79;101878.31;4818685;29;20034;-74
2022/05/05 02:09:22;;;;;;;19.85;7.78;;;;;;;9.25;81.02;101873.31;4819760;29;20042;-72
2022/05/05 02:11:48;;;;;;;24.98;10.13;;;;;;;9.21;80.93;101885.28;4820112;29;20030;-72
2022/05/05 02:14:13;;;;;;;22.83;7.90;;;;;;;9.17;80.56;101889.28;4820421;29;20034;-73
2022/05/05 02:16:38;;;;;;;18.90;7.00;;;;;;;9.10;80.68;101881.06;4819904;29;20030;-72
2022/05/05 02:19:04;;;;;;;17.10;7.15;;;;;;;9.05;81.05;101879.91;4820148;29;20121;-71
2022/05/05 02:21:29;;;;;;;19.88;8.35;;;;;;;9.03;81.54;101890.69;4820082;29;20038;-72
2022/05/05 02:23:54;;;;;;;16.98;7.55;;;;;;;8.97;81.88;101884.19;4820086;29;20386;-72
2022/05/05 02:26:20;;;;;;;17.75;7.97;;;;;;;8.95;82.10;101890.66;4819881;29;20038;-72
2022/05/05 02:28:45;;;;;;;16.83;7.50;;;;;;;8.91;82.34;101884.03;4819865;29;20030;-72
2022/05/05 02:31:10;;;;;;;17.50;8.02;;;;;;;8.80;82.48;101885.09;4806087;29;20119;-72
2022/05/05 02:33:36;;;;;;;14.80;7.13;;;;;;;8.78;82.95;101881.78;4823144;29;20060;-72
2022/05/05 02:38:47;;;;;;;18.23;8.30;;;;;;;8.69;83.52;101893.38;4823563;29;20053;-71
2022/05/05 02:41:13;;;;;;;18.13;8.10;;;;;;;8.63;83.67;101886.88;4824100;29;20609;-72
2022/05/05 02:43:38;;;;;;;19.77;8.40;;;;;;;8.61;83.61;101886.19;4822998;29;20122;-71
2022/05/05 02:46:03;;;;;;;19.48;8.90;;;;;;;8.56;83.80;101886.66;4822203;29;20034;-71
2022/05/05 02:48:29;;;;;;;17.13;10.68;;;;;;;8.50;83.87;101883.81;4822895;29;20038;-71
2022/05/05 02:50:54;;;;;;;19.10;8.93;;;;;;;8.53;84.42;101896.78;4822833;29;20126;-72
2022/05/05 02:56:05;;;;;;;17.23;8.02;;;;;;;8.52;84.41;101889.81;4822800;29;20115;-71
2022/05/05 02:58:31;;;;;;;23.55;9.13;;;;;;;8.51;84.31;101894.28;4822545;29;20037;-71
2022/05/05 03:00:57;;;;;;;18.42;6.65;;;;;;;8.53;84.49;101891.47;4822708;29;20142;-72
2022/05/05 03:03:23;;;;;;;21.30;8.85;;;;;;;8.52;84.30;101895.13;4822647;29;20077;-72
2022/05/05 03:05:48;;;;;;;18.52;8.43;;;;;;;8.52;84.92;101890.63;4822726;29;20038;-71
2022/05/05 03:08:13;;;;;;;21.08;10.07;;;;;;;8.53;85.08;101894.13;4822550;29;20038;-71
2022/05/05 03:10:39;;;;;;;18.42;8.73;;;;;;;8.53;85.46;101889.63;4822432;29;20038;-71
2022/05/05 03:13:05;;;;;;;20.52;7.93;;;;;;;8.48;85.35;101894.59;4822219;29;20105;-72
2022/05/05 03:15:31;;;;;;;17.90;8.50;;;;;;;8.47;85.45;101895.59;4822318;29;20057;-71
2022/05/05 03:17:56;;;;;;;20.88;10.20;;;;;;;8.44;85.53;101893.25;4822699;29;20396;-72
2022/05/05 03:20:22;;;;;;;20.55;9.20;;;;;;;8.44;85.67;101897.75;4822436;29;20042;-71
2022/05/05 03:22:48;;;;;;;20.23;8.85;;;;;;;8.46;85.81;101901.91;4822316;29;20027;-71
2022/05/05 03:25:13;;;;;;;20.88;9.02;;;;;;;8.48;85.70;101899.91;4822432;29;20042;-71
2022/05/05 03:27:39;;;;;;;19.40;8.73;;;;;;;8.52;86.06;101895.94;4822364;29;20639;-72
2022/05/05 03:30:05;;;;;;;17.25;8.15;;;;;;;8.55;86.34;101906.25;4822153;29;20045;-71
2022/05/05 03:32:32;;;;;;;21.48;10.30;;;;;;;8.58;85.83;101905.13;4822185;29;20042;-71
2022/05/05 03:34:58;;;;;;;20.50;9.27;;;;;;;8.60;86.02;101911.13;4822266;29;20110;-71
2022/05/05 03:37:28;;;;;;;18.98;8.38;;;;;;;8.59;86.15;101903.28;4822092;29;20053;-72
2022/05/05 03:39:53;;;;;;;20.58;8.75;;;;;;;8.62;85.86;101905.63;4822420;29;20390;-71
2022/05/05 03:42:18;;;;;;;18.27;8.90;;;;;;;8.56;85.95;101897.28;4821410;29;20034;-72
2022/05/05 03:44:44;;;;;;;18.83;9.82;;;;;;;8.59;85.90;101903.28;4821830;29;20389;-72
2022/05/05 03:47:09;;;;;;;19.85;10.10;;;;;;;8.62;85.68;101901.16;4822084;29;20103;-72
2022/05/05 03:49:34;;;;;;;19.27;8.13;;;;;;;8.60;86.02;101911.13;4822029;29;20522;-71
2022/05/05 03:52:00;;;;;;;21.50;10.88;;;;;;;8.54;86.16;101909.06;4805742;29;20034;-71
2022/05/05 03:54:26;;;;;;;18.00;8.20;;;;;;;8.56;86.50;101915.91;4821678;29;20113;-71
2022/05/05 03:56:51;;;;;;;22.73;10.40;;;;;;;8.56;86.48;101909.75;4821912;29;20050;-71
2022/05/05 03:59:17;;;;;;;23.40;10.05;;;;;;;8.58;86.85;101912.25;4821936;29;20030;-72
2022/05/05 04:01:42;;;;;;;20.25;9.27;;;;;;;8.58;87.12;101909.59;4821769;29;20589;-71
2022/05/05 04:04:08;;;;;;;21.65;9.98;;;;;;;8.60;87.47;101911.13;4821754;29;20061;-71
2022/05/05 04:06:33;;;;;;;22.52;9.20;;;;;;;8.61;87.39;101914.59;4821793;29;20038;-71
2022/05/05 04:08:58;;;;;;;26.42;11.23;;;;;;;8.65;87.13;101913.31;4821585;29;20030;-71
2022/05/05 04:11:24;;;;;;;18.35;9.43;;;;;;;8.56;87.12;101901.78;4821381;29;20034;-72
2022/05/05 04:13:49;;;;;;;22.95;11.25;;;;;;;8.67;86.91;101928.13;4821110;29;20038;-71
2022/05/05 04:16:15;;;;;;;21.13;9.00;;;;;;;8.73;86.89;101921.34;4821569;29;20474;-71
2022/05/05 04:18:40;;;;;;;21.35;9.25;;;;;;;8.75;86.98;101924.66;4821577;29;20042;-71
2022/05/05 04:21:06;;;;;;;22.92;9.98;;;;;;;8.74;86.77;101926.47;4821448;29;20034;-71
2022/05/05 04:23:31;;;;;;;24.50;10.82;;;;;;;8.74;87.15;101926.47;4805071;29;20038;-71
2022/05/05 04:25:57;;;;;;;21.90;10.55;;;;;;;8.73;87.43;101930.16;4819783;29;20061;-71
2022/05/05 04:28:23;;;;;;;18.05;8.35;;;;;;;8.70;87.43;101932.28;4821315;29;20045;-71
2022/05/05 04:30:49;;;;;;;21.60;11.18;;;;;;;8.70;87.65;101940.28;4821075;29;20058;-71
2022/05/05 04:33:14;;;;;;;32.22;11.40;;;;;;;8.75;87.78;101940.59;4821409;29;20061;-71
2022/05/05 04:35:39;;;;;;;32.65;13.07;;;;;;;8.77;87.63;101943.94;4804970;29;20030;-72
2022/05/05 04:38:05;;;;;;;24.67;11.05;;;;;;;8.74;87.41;101939.78;4821388;29;20042;-71
2022/05/05 04:40:31;;;;;;;19.00;8.13;;;;;;;8.70;87.98;101941.09;4821352;29;20030;-71
2022/05/05 04:42:57;;;;;;;20.23;10.20;;;;;;;8.78;87.98;101948.28;4821944;29;20042;-71
2022/05/05 04:45:22;;;;;;;25.92;9.50;;;;;;;8.79;87.65;101947.28;4823836;29;20044;-71
2022/05/05 04:47:48;;;;;;;18.98;9.05;;;;;;;8.80;87.84;101946.28;4804075;29;20046;-72
2022/05/05 04:50:14;;;;;;;20.13;9.60;;;;;;;8.81;87.90;101949.81;4820574;29;20416;-72
2022/05/05 04:52:39;;;;;;;20.00;9.48;;;;;;;8.84;87.65;101954.81;4820759;29;20091;-72
2022/05/05 04:55:05;;;;;;;22.73;10.48;;;;;;;8.88;87.65;101953.47;4820797;29;20054;-71
2022/05/05 04:57:30;;;;;;;21.08;10.13;;;;;;;8.91;87.69;101954.03;4820832;29;20042;-71
2022/05/05 04:59:55;;;;;;;23.48;10.90;;;;;;;8.98;87.60;101957.69;4820961;29;20034;-71
2022/05/05 05:02:21;;;;;;;20.90;10.20;;;;;;;8.99;87.65;101951.41;4820906;29;20068;-72
2022/05/05 05:04:47;;;;;;;22.90;11.15;;;;;;;9.12;87.38;101966.09;4821040;29;20425;-71
2022/05/05 05:07:12;;;;;;;21.90;10.52;;;;;;;9.12;87.22;101953.63;4820896;29;20401;-71
2022/05/05 05:09:37;;;;;;;26.40;13.55;;;;;;;9.31;86.99;101965.00;4820906;29;20466;-72
2022/05/05 05:12:03;;;;;;;24.80;12.07;;;;;;;9.41;86.64;101961.22;4804290;29;20038;-71
2022/05/05 05:14:29;;;;;;;20.92;11.48;;;;;;;9.57;86.54;101959.59;4820662;29;20381;-72
2022/05/05 05:16:54;;;;;;;24.88;10.98;;;;;;;9.70;85.70;101967.94;4820804;29;20026;-71
2022/05/05 05:19:19;;;;;;;21.25;10.30;;;;;;;9.81;84.83;101964.13;4820798;29;20034;-72
2022/05/05 05:21:45;;;;;;;23.70;11.27;;;;;;;9.92;84.74;101969.13;4820710;29;20039;-71
2022/05/05 05:24:10;;;;;;;24.58;11.07;;;;;;;10.00;84.58;101970.97;4820604;29;20134;-71
2022/05/05 05:26:35;;;;;;;23.23;12.10;;;;;;;10.09;84.33;101973.50;4803996;29;20038;-71
2022/05/05 05:29:01;;;;;;;26.67;11.90;;;;;;;10.20;84.16;101977.66;4820498;29;20038;-71
2022/05/05 05:31:28;;;;;;;24.33;12.50;;;;;;;10.25;83.91;101972.66;4820258;29;20129;-71
2022/05/05 05:33:53;;;;;;;23.25;10.85;;;;;;;10.35;83.42;101977.88;4820623;29;20418;-71
2022/05/05 05:36:19;;;;;;;22.20;11.95;;;;;;;10.40;82.97;101978.19;4820462;29;20030;-72
2022/05/05 05:38:45;;;;;;;21.83;12.40;;;;;;;10.37;82.64;101975.84;4820602;29;20066;-72
2022/05/05 05:41:11;;;;;;;28.25;13.38;;;;;;;10.37;82.75;101973.19;4820532;29;20604;-72
2022/05/05 05:43:36;;;;;;;25.90;13.57;;;;;;;10.36;82.88;101976.84;4820238;29;20038;-72
2022/05/05 05:46:02;;;;;;;25.42;14.00;;;;;;;10.42;82.84;101980.69;4820467;29;20394;-72
2022/05/05 05:48:27;;;;;;;25.35;14.15;;;;;;;10.47;82.38;101983.69;4820759;29;20129;-71
2022/05/05 05:50:52;;;;;;;22.00;13.57;;;;;;;10.51;82.44;101991.19;4820371;29;20038;-72
2022/05/05 05:53:18;;;;;;;26.77;15.75;;;;;;;10.58;82.60;101993.16;4820336;29;20449;-71
2022/05/05 05:55:43;;;;;;;33.75;16.98;;;;;;;10.65;82.28;101989.66;4820012;29;20442;-71
2022/05/05 05:58:08;;;;;;;34.03;17.50;;;;;;;10.72;81.27;101995.16;4820382;29;20030;-72
2022/05/05 06:00:34;;;;;;;38.50;17.65;;;;;;;10.77;81.39;101999.97;4820288;29;20022;-71
2022/05/05 06:05:45;;;;;;;30.00;17.88;;;;;;;11.00;81.57;101992.09;4822574;29;20057;-72
2022/05/05 06:08:10;;;;;;;27.23;16.27;;;;;;;11.14;80.97;101996.72;4823526;29;20082;-71
2022/05/05 06:10:36;;;;;;;27.42;16.35;;;;;;;11.23;80.44;102003.69;4823413;29;20038;-71
2022/05/05 06:13:02;;;;;;;25.77;17.00;;;;;;;11.32;80.40;102002.66;4823448;29;20095;-71
2022/05/05 06:15:28;;;;;;;28.13;16.85;;;;;;;11.45;79.73;102007.47;4807034;29;20074;-71
2022/05/05 06:17:53;;;;;;;34.58;18.88;;;;;;;11.60;78.14;102003.03;4823031;29;20077;-71
2022/05/05 06:20:19;;;;;;;23.42;14.43;;;;;;;11.71;76.83;102007.16;4823323;29;20486;-72
2022/05/05 06:22:44;;;;;;;24.02;15.63;;;;;;;11.84;75.66;102009.25;4823178;29;20096;-72
2022/05/05 06:25:13;;;;;;;25.58;16.30;;;;;;;11.97;76.82;101998.00;4823066;29;20046;-72
2022/05/05 06:27:39;;;;;;;30.45;14.30;;;;;;;12.03;75.28;101999.97;4823242;29;20085;-71
2022/05/05 06:30:07;;;;;;;25.67;15.75;;;;;;;12.14;74.70;101996.88;4823284;29;20121;-73
2022/05/05 06:32:32;;;;;;;26.10;14.05;;;;;;;12.27;72.87;102002.47;4819415;29;20042;-74
2022/05/05 06:34:58;;;;;;;19.67;10.38;;;;;;;12.37;69.57;102004.06;4822927;29;20031;-72
2022/05/05 06:37:24;;;;;;;24.73;12.35;;;;;;;12.47;69.91;102013.50;4822986;29;20026;-71
2022/05/05 06:39:50;;;;;;;22.77;12.55;;;;;;;12.57;68.59;102009.72;4823061;29;20030;-72
2022/05/05 06:42:16;;;;;;;25.00;13.73;;;;;;;12.65;69.79;102001.63;4823017;29;20053;-72
2022/05/05 06:44:42;;;;;;;23.33;15.07;;;;;;;12.71;68.99;102015.13;4823050;29;20077;-72
2022/05/05 06:47:07;;;;;;;23.20;12.38;;;;;;;12.78;67.37;102014.38;4822971;29;20471;-71
2022/05/05 06:49:33;;;;;;;22.65;12.38;;;;;;;12.86;66.44;102014.31;4822950;29;20032;-72
2022/05/05 06:52:02;;;;;;;26.95;13.95;;;;;;;12.96;64.97;102011.38;4822933;29;20379;-72
2022/05/05 06:54:27;;;;;;;24.90;13.25;;;;;;;13.07;65.04;102021.59;4822476;29;20045;-73
2022/05/05 06:56:54;;;;;;;21.92;11.80;;;;;;;13.21;67.12;102014.59;4822775;29;20030;-72
2022/05/05 06:59:19;;;;;;;18.42;9.43;;;;;;;13.35;62.85;102013.78;4806466;29;20567;-74
2022/05/05 07:01:54;;;;;;;19.50;9.75;;;;;;;13.55;60.77;102014.06;4822677;29;20038;-72
2022/05/05 07:07:06;;;;;;;21.00;10.48;;;;;;;14.09;61.37;102026.19;4822832;29;20073;-72
2022/05/05 07:12:16;;;;;;;20.08;10.73;;;;;;;14.72;59.56;102034.41;4822939;29;20073;-71
2022/05/05 07:14:43;;;;;;;20.20;10.15;;;;;;;14.94;58.28;102032.53;4822362;29;21092;-72
2022/05/05 07:17:09;;;;;;;22.63;10.93;;;;;;;15.15;58.49;102040.50;4822242;29;20026;-72
2022/05/05 07:19:34;;;;;;;25.55;11.43;;;;;;;15.31;58.29;102037.47;4805789;29;20038;-72
2022/05/05 07:21:59;;;;;;;23.15;11.52;;;;;;;15.39;58.36;102044.56;4822272;29;20038;-72
2022/05/05 07:24:25;;;;;;;23.15;11.70;;;;;;;15.47;59.06;102049.75;4822162;29;20493;-72
2022/05/05 07:26:50;;;;;;;30.52;12.73;;;;;;;15.57;60.14;102052.91;4822058;29;20044;-71
2022/05/05 07:29:16;;;;;;;21.33;11.75;;;;;;;15.80;60.31;102053.63;4805958;29;20060;-73
2022/05/05 07:31:41;;;;;;;23.77;13.07;;;;;;;16.11;58.46;102055.78;4805639;29;20057;-72
2022/05/05 07:34:07;;;;;;;24.35;13.38;;;;;;;16.33;59.17;102053.78;4822126;29;20488;-73
2022/05/05 07:36:33;;;;;;;28.73;16.05;;;;;;;16.52;57.25;102044.06;4821968;29;20030;-72
2022/05/05 07:38:58;;;;;;;28.67;15.40;;;;;;;16.63;57.11;102051.50;4822060;29;20486;-72
2022/05/05 07:41:23;;;;;;;25.58;14.57;;;;;;;16.62;56.85;102055.25;4822258;29;20034;-71
2022/05/05 07:43:52;;;;;;;26.35;14.95;;;;;;;16.75;57.46;102054.41;4822202;29;20077;-71
2022/05/05 07:46:18;;;;;;;27.48;15.30;;;;;;;16.94;57.48;102060.84;4776180;29;20038;-72
2022/05/05 07:48:44;;;;;;;27.05;16.50;;;;;;;17.02;56.42;102055.25;4822025;29;20030;-71
2022/05/05 07:51:10;;;;;;;29.17;15.20;;;;;;;16.96;56.00;102064.19;4821960;29;20144;-72
2022/05/05 07:53:35;;;;;;;27.23;15.38;;;;;;;16.99;57.27;102058.34;4821958;29;20549;-71
2022/05/05 07:56:01;;;;;;;29.00;16.55;;;;;;;17.13;56.64;102061.84;4821716;29;20131;-71
2022/05/05 07:58:26;;;;;;;29.40;16.27;;;;;;;17.34;55.71;102064.28;4821810;29;20046;-71
2022/05/05 08:00:52;;;;;;;30.42;17.42;;;;;;;17.57;57.28;102065.66;4821818;29;20037;-71
2022/05/05 08:03:18;;;;;;;28.67;17.17;;;;;;;17.84;56.24;102067.25;4821776;29;20058;-72
2022/05/05 08:05:44;;;;;;;25.48;16.33;;;;;;;18.06;55.86;102061.53;4821969;29;20034;-72
2022/05/05 08:08:09;;;;;;;26.35;16.40;;;;;;;18.63;54.55;102062.38;4821612;29;20118;-71
2022/05/05 08:10:35;;;;;;;29.98;16.83;;;;;;;19.09;54.39;102071.13;4821749;29;20046;-72
2022/05/05 08:13:00;;;;;;;25.98;15.48;;;;;;;19.67;51.10;102068.00;4821062;29;20038;-71
2022/05/05 08:15:25;;;;;;;26.88;14.40;;;;;;;19.96;50.10;102066.34;4804414;29;20038;-72
2022/05/05 08:17:51;;;;;;;30.13;16.02;;;;;;;20.65;48.52;102074.94;4804788;29;20129;-71
2022/05/05 08:20:16;;;;;;;24.70;13.48;;;;;;;20.76;47.08;102078.72;4821491;29;20080;-72
2022/05/05 08:22:41;;;;;;;23.58;12.90;;;;;;;20.88;46.59;102076.00;4821919;29;20039;-71
2022/05/05 08:30:38;;;;;;;24.05;13.57;;;;;;;23.44;42.29;102076.06;4821581;29;20127;-72
2022/05/05 08:33:03;;;;;;;22.83;13.77;;;;;;;23.56;39.48;102076.78;4821337;29;20065;-71
2022/05/05 08:35:29;;;;;;;24.58;12.88;;;;;;;23.13;40.23;102083.00;4821254;29;20070;-71
2022/05/05 08:37:55;;;;;;;24.13;13.60;;;;;;;22.65;41.70;102079.00;4820799;29;20050;-71
2022/05/05 08:40:23;;;;;;;27.23;15.30;;;;;;;22.36;42.22;102084.50;4821248;29;20196;-72
2022/05/05 08:42:49;;;;;;;29.25;15.65;;;;;;;22.45;41.65;102082.19;4821210;29;20479;-72
2022/05/05 08:45:14;;;;;;;25.17;13.95;;;;;;;22.22;43.06;102085.91;4821280;29;20034;-72
2022/05/05 08:47:42;;;;;;;23.58;13.30;;;;;;;21.94;42.91;102090.22;4820919;29;20034;-71
2022/05/05 08:50:11;;;;;;;21.52;13.32;;;;;;;21.37;43.84;102093.66;4816825;29;20402;-74
2022/05/05 08:52:47;;;;;;;23.25;13.68;;;;;;;20.53;46.35;102095.75;4816944;29;20174;-73
2022/05/05 08:55:14;;;;;;;22.67;11.93;;;;;;;20.00;47.18;102100.06;4817104;29;20141;-74
2022/05/05 08:57:40;;;;;;;26.08;13.18;;;;;;;19.60;47.90;102097.84;4817381;29;20059;-75
2022/05/05 09:00:06;;;;;;;24.38;13.73;;;;;;;19.18;47.85;102103.06;4818322;29;20082;-74
2022/05/05 09:02:32;;;;;;;26.45;13.50;;;;;;;18.83;49.95;102098.19;4821026;29;20038;-73
2022/05/05 09:04:57;;;;;;;26.35;16.45;;;;;;;18.56;51.67;102088.63;4821055;29;20058;-74
2022/05/05 09:07:45;;;;;;;22.80;13.00;;;;;;;18.43;52.39;102105.75;4820740;29;20038;-74
2022/05/05 09:10:11;;;;;;;25.15;15.80;;;;;;;18.23;53.33;102105.03;4820829;29;20034;-74
2022/05/05 09:12:36;;;;;;;22.58;12.93;;;;;;;18.06;53.58;102108.25;4820910;29;20425;-73
2022/05/05 09:15:08;;;;;;;29.27;16.38;;;;;;;17.99;53.86;102107.44;4820342;29;20074;-73
2022/05/05 09:17:35;;;;;;;23.77;13.55;;;;;;;17.86;53.37;102104.81;4820436;29;20049;-74
2022/05/05 09:20:03;;;;;;;27.88;15.57;;;;;;;17.63;53.53;102108.84;4820864;29;20387;-74
2022/05/05 09:22:29;;;;;;;27.02;15.18;;;;;;;17.62;55.71;102114.44;4820481;29;20489;-74
2022/05/05 09:25:01;;;;;;;24.50;15.20;;;;;;;17.60;54.88;102114.63;4820682;29;20050;-74
2022/05/05 09:27:28;;;;;;;29.08;16.52;;;;;;;17.43;54.88;102121.53;4821038;29;20527;-74
2022/05/05 09:30:14;;;;;;;27.13;14.93;;;;;;;17.45;55.22;102116.78;4820682;29;20045;-74
2022/05/05 09:32:45;;;;;;;26.20;14.38;;;;;;;17.64;54.52;102113.16;4820618;29;20038;-74
2022/05/05 09:35:15;;;;;;;23.70;13.65;;;;;;;17.65;56.12;102109.41;4820700;29;20038;-74
2022/05/05 09:37:44;;;;;;;24.15;13.32;;;;;;;17.74;56.12;102112.72;4820643;29;20625;-74
2022/05/05 09:40:13;;;;;;;27.35;14.50;;;;;;;17.93;53.72;102111.00;4821607;29;20034;-74
2022/05/05 09:42:43;;;;;;;23.23;12.50;;;;;;;18.04;53.54;102112.22;4824133;29;20041;-74
2022/05/05 09:45:12;;;;;;;28.05;15.15;;;;;;;18.08;53.87;102114.28;4824032;29;20026;-74
2022/05/05 09:47:38;;;;;;;28.27;15.90;;;;;;;18.03;53.70;102118.66;4824022;29;20038;-74
2022/05/05 09:50:04;;;;;;;30.42;16.48;;;;;;;18.03;53.75;102119.47;4823884;29;20041;-73
2022/05/05 09:58:11;;;;;;;25.90;14.88;;;;;;;17.79;56.39;102120.16;4823989;29;20654;-74
2022/05/05 10:05:52;;;;;;;28.77;19.30;;;;;;;17.79;53.84;102121.06;4824008;29;20175;-73
2022/05/05 10:08:21;;;;;;;25.23;16.13;;;;;;;17.85;54.49;102125.59;4823689;29;20057;-74
2022/05/05 10:10:46;;;;;;;27.58;16.73;;;;;;;17.92;54.09;102115.59;4823546;29;20037;-74
2022/05/05 10:13:12;;;;;;;25.33;16.20;;;;;;;17.97;56.76;102120.31;4823373;29;20414;-74
2022/05/05 10:15:39;;;;;;;28.95;17.35;;;;;;;17.89;54.84;102124.13;4823633;29;20064;-74
2022/05/05 10:18:04;;;;;;;31.27;17.15;;;;;;;18.00;55.02;102130.72;4823493;29;20041;-74
2022/05/05 10:20:32;;;;;;;25.80;15.43;;;;;;;18.10;53.54;102119.44;4823411;29;20030;-74
2022/05/05 10:23:07;;;;;;;27.27;16.55;;;;;;;18.06;53.04;102115.53;4823444;29;20054;-74
2022/05/05 10:25:37;;;;;;;24.08;14.65;;;;;;;18.00;54.14;102119.91;4823008;29;20531;-74
2022/05/05 10:28:03;;;;;;;25.95;16.38;;;;;;;18.03;54.34;102118.66;4823333;29;20042;-73
2022/05/05 10:30:35;;;;;;;27.63;16.73;;;;;;;18.07;53.25;102111.78;4823295;29;20067;-74
2022/05/05 10:33:08;;;;;;;53.05;21.95;;;;;;;18.08;55.19;102116.16;4823291;29;20042;-74
2022/05/05 10:35:47;;;;;;;30.80;17.00;;;;;;;18.28;53.97;102114.13;4823203;29;20758;-74
2022/05/05 10:38:38;;;;;;;28.45;17.27;;;;;;;18.91;53.68;102113.28;4823223;29;20038;-74
2022/05/05 10:41:36;;;;;;;25.17;16.80;;;;;;;19.51;52.31;102112.69;4822985;29;20038;-74
2022/05/05 10:44:20;;;;;;;29.33;17.33;;;;;;;19.67;50.03;102112.13;4823035;29;20440;-74
2022/05/05 10:47:01;;;;;;;25.45;17.17;;;;;;;19.77;52.35;102122.44;4822806;29;20042;-74
2022/05/05 10:49:41;;;;;;;25.80;18.17;;;;;;;19.94;50.47;102119.94;4823019;29;20071;-74
2022/05/05 10:52:09;;;;;;;27.23;17.63;;;;;;;20.06;48.73;102123.50;4823067;29;20034;-75
2022/05/05 10:54:55;;;;;;;24.98;16.48;;;;;;;20.17;49.16;102126.50;4822776;29;20061;-74
2022/05/05 10:57:27;;;;;;;23.45;15.68;;;;;;;20.18;47.02;102117.34;4822597;29;20038;-74
2022/05/05 11:00:15;;;;;;;23.77;16.10;;;;;;;20.24;49.09;102114.50;4822865;29;20550;-74
2022/05/05 11:03:03;;;;;;;27.75;18.52;;;;;;;20.36;49.33;102112.69;4822949;29;20560;-74
2022/05/05 11:05:35;;;;;;;27.88;18.05;;;;;;;20.47;50.89;102111.06;4822648;29;20039;-74
2022/05/05 11:08:08;;;;;;;27.67;16.25;;;;;;;20.54;48.44;102117.25;4822603;29;20035;-75
2022/05/05 11:13:41;;;;;;;25.73;17.25;;;;;;;20.34;46.52;102114.78;4822641;29;20111;-74
2022/05/05 11:22:28;;;;;;;23.70;15.63;;;;;;;19.65;48.60;102108.00;4822844;29;20045;-74
2022/05/05 11:24:53;;;;;;;26.40;17.70;;;;;;;19.54;51.62;102117.66;4822361;29;20637;-74
2022/05/05 11:27:21;;;;;;;24.98;17.02;;;;;;;19.44;48.77;102111.94;4821978;29;20042;-74
2022/05/05 11:29:54;;;;;;;27.17;18.05;;;;;;;19.39;49.37;102115.34;4822365;29;20026;-74
2022/05/05 11:32:27;;;;;;;29.98;20.42;;;;;;;19.35;49.27;102122.25;4822437;29;20040;-74
2022/05/05 11:34:52;;;;;;;26.35;18.88;;;;;;;19.38;49.30;102115.56;4822461;29;20034;-74
2022/05/05 11:37:18;;;;;;;27.35;16.63;;;;;;;19.39;47.14;102109.13;4805786;29;20150;-74
2022/05/05 11:39:47;;;;;;;28.17;19.92;;;;;;;19.33;47.93;102113.50;4822201;29;20040;-74
2022/05/05 11:42:13;;;;;;;28.88;21.13;;;;;;;19.37;49.04;102111.22;4822049;29;20098;-74
2022/05/05 11:44:41;;;;;;;31.25;21.65;;;;;;;19.41;48.68;102115.94;4821870;29;20034;-74
2022/05/05 11:47:13;;;;;;;29.65;20.20;;;;;;;19.35;48.68;102113.31;4822076;29;20058;-74
2022/05/05 11:49:40;;;;;;;29.75;21.85;;;;;;;19.15;48.12;102114.34;4822072;29;20034;-74
2022/05/05 11:52:06;;;;;;;29.52;22.35;;;;;;;19.16;49.72;102116.00;4821964;29;20045;-74
2022/05/05 11:54:33;;;;;;;27.92;22.10;;;;;;;19.29;51.09;102112.31;4821879;29;20046;-74
2022/05/05 11:57:00;;;;;;;28.60;20.30;;;;;;;19.41;48.54;102112.41;4821970;29;20042;-74
2022/05/05 12:02:18;;;;;;;29.63;21.67;;;;;;;19.77;47.24;102106.19;4821531;29;20053;-74
2022/05/05 12:04:47;;;;;;;28.48;22.48;;;;;;;19.97;46.95;102108.66;4821798;29;20104;-74
2022/05/05 12:07:23;;;;;;;33.42;20.55;;;;;;;20.24;46.90;102108.28;4821527;29;20026;-75